createdAt,value
2019-04-28T00:02:02.996Z,7.30
2019-04-28T00:04:31.598Z,7.10
2019-04-28T00:07:01.768Z,7.20
2019-04-28T00:09:31.374Z,6.90
2019-04-28T00:12:01.758Z,6.90
2019-04-28T00:14:31.741Z,7.00
2019-04-28T00:17:01.071Z,7.00
2019-04-28T00:19:31.000Z,7.10
2019-04-28T00:22:01.395Z,7.20
2019-04-28T00:24:37.393Z,7.10
2019-04-28T00:27:06.389Z,7.10
2019-04-28T00:29:40.846Z,7.10
2019-04-28T00:32:05.675Z,6.70
2019-04-28T00:34:34.195Z,6.50
2019-04-28T00:37:04.288Z,6.60
2019-04-28T00:39:32.742Z,6.20
2019-04-28T00:42:03.115Z,6.30
2019-04-28T00:44:31.585Z,6.40
2019-04-28T00:47:01.150Z,6.50
2019-04-28T00:49:37.734Z,6.10
2019-04-28T00:52:06.190Z,6.10
2019-04-28T00:54:34.630Z,5.90
2019-04-28T00:57:03.076Z,6.10
2019-04-28T00:59:31.647Z,6.50
2019-04-28T01:02:01.817Z,6.60
2019-04-28T01:04:31.252Z,6.20
2019-04-28T01:07:01.647Z,5.90
2019-04-28T01:09:31.565Z,5.90
2019-04-28T01:12:01.803Z,5.90
2019-04-28T01:14:31.003Z,6.00
2019-04-28T01:17:01.362Z,6.00
2019-04-28T01:19:40.497Z,5.90
2019-04-28T01:22:11.823Z,5.90
2019-04-28T01:24:41.073Z,5.90
2019-04-28T01:27:30.373Z,6.00
2019-04-28T01:30:08.265Z,6.00
2019-04-28T01:32:49.814Z,6.00
2019-04-28T01:35:20.890Z,6.10
2019-04-28T01:37:50.463Z,6.20
2019-04-28T01:40:20.531Z,6.30
2019-04-28T01:42:52.015Z,6.30
2019-04-28T01:45:20.682Z,6.20
2019-04-28T01:47:50.408Z,6.30
2019-04-28T01:50:20.462Z,6.30
2019-04-28T01:52:49.949Z,6.20
2019-04-28T01:55:19.993Z,6.10
2019-04-28T01:57:49.812Z,6.20
2019-04-28T02:00:25.022Z,6.20
2019-04-28T02:02:50.548Z,6.20
2019-04-28T02:05:19.661Z,6.20
2019-04-28T02:07:50.476Z,6.20
2019-04-28T02:10:21.502Z,6.10
2019-04-28T02:12:50.309Z,6.10
2019-04-28T02:15:20.207Z,6.00
2019-04-28T02:17:49.985Z,6.00
2019-04-28T02:20:20.398Z,6.00
2019-04-28T02:22:50.485Z,6.00
2019-04-28T02:25:19.574Z,6.00
2019-04-28T02:27:49.949Z,6.00
2019-04-28T02:30:22.603Z,5.90
2019-04-28T02:32:51.631Z,5.90
2019-04-28T02:35:21.181Z,5.90
2019-04-28T02:37:50.399Z,6.00
2019-04-28T02:40:20.752Z,5.80
2019-04-28T02:42:51.883Z,5.70
2019-04-28T02:45:21.823Z,5.70
2019-04-28T02:47:52.432Z,5.70
2019-04-28T02:50:34.969Z,5.70
2019-04-28T02:53:23.147Z,5.80
2019-04-28T02:55:51.668Z,5.80
2019-04-28T02:58:22.465Z,5.80
2019-04-28T03:01:02.904Z,5.70
2019-04-28T03:03:21.287Z,5.70
2019-04-28T03:05:51.289Z,5.70
2019-04-28T03:08:21.339Z,5.70
2019-04-28T03:10:50.856Z,5.70
2019-04-28T03:13:20.879Z,5.70
2019-04-28T03:15:51.674Z,5.70
2019-04-28T03:18:21.460Z,5.80
2019-04-28T03:20:51.581Z,5.70
2019-04-28T03:23:20.811Z,5.60
2019-04-28T03:26:07.402Z,5.50
2019-04-28T03:28:37.572Z,5.50
2019-04-28T03:31:36.732Z,5.40
2019-04-28T03:33:46.703Z,5.50
2019-04-28T03:36:15.114Z,5.50
2019-04-28T03:38:40.627Z,5.30
2019-04-28T03:41:11.205Z,5.40
2019-04-28T03:43:40.636Z,5.30
2019-04-28T03:46:20.389Z,5.30
2019-04-28T03:48:50.870Z,5.30
2019-04-28T03:51:21.216Z,5.20
2019-04-28T03:53:50.698Z,5.10
2019-04-28T03:56:20.968Z,5.20
2019-04-28T03:58:50.410Z,5.20
2019-04-28T04:01:20.681Z,5.10
2019-04-28T04:03:51.527Z,5.10
2019-04-28T04:06:19.519Z,5.10
2019-04-28T04:08:50.499Z,5.10
2019-04-28T04:11:22.460Z,5.10
2019-04-28T04:14:01.409Z,5.20
2019-04-28T04:16:30.889Z,5.40
2019-04-28T04:19:01.204Z,5.20
2019-04-28T04:21:31.074Z,5.10
2019-04-28T04:24:00.967Z,5.30
2019-04-28T04:26:31.075Z,5.20
2019-04-28T04:29:00.899Z,5.50
2019-04-28T04:31:31.838Z,5.40
2019-04-28T04:34:00.887Z,5.40
2019-04-28T04:36:31.047Z,5.30
2019-04-28T04:39:01.774Z,5.30
2019-04-28T04:41:30.637Z,5.20
2019-04-28T04:44:01.212Z,5.20
2019-04-28T04:46:31.374Z,5.10
2019-04-28T04:49:00.806Z,5.20
2019-04-28T04:51:30.648Z,5.60
2019-04-28T04:54:01.170Z,5.60
2019-04-28T04:56:30.321Z,5.70
2019-04-28T04:59:02.211Z,5.40
2019-04-28T05:01:33.500Z,5.20
2019-04-28T05:04:12.576Z,5.10
2019-04-28T05:06:41.845Z,5.10
2019-04-28T05:09:11.065Z,5.20
2019-04-28T05:11:40.146Z,5.30
2019-04-28T05:14:11.679Z,5.40
2019-04-28T05:16:39.994Z,5.50
2019-04-28T05:19:10.190Z,5.60
2019-04-28T05:21:40.136Z,5.60
2019-04-28T05:24:22.931Z,5.60
2019-04-28T05:26:51.618Z,5.60
2019-04-28T05:29:26.430Z,5.60
2019-04-28T05:31:50.590Z,5.80
2019-04-28T05:34:20.687Z,5.80
2019-04-28T05:36:50.511Z,5.70
2019-04-28T05:39:19.588Z,5.80
2019-04-28T05:41:50.304Z,5.70
2019-04-28T05:44:20.103Z,5.80
2019-04-28T05:46:50.624Z,5.80
2019-04-28T05:49:23.715Z,5.90
2019-04-28T05:52:12.169Z,6.00
2019-04-28T05:54:49.635Z,6.30
2019-04-28T05:57:20.681Z,6.50
2019-04-28T06:00:00.049Z,6.90
2019-04-28T06:02:30.554Z,7.10
2019-04-28T06:04:59.981Z,6.90
2019-04-28T06:07:36.540Z,7.00
2019-04-28T06:10:06.624Z,6.80
2019-04-28T06:12:35.092Z,6.80
2019-04-28T06:15:06.321Z,7.10
2019-04-28T06:17:34.772Z,7.20
2019-04-28T06:20:04.179Z,7.20
2019-04-28T06:22:32.629Z,7.20
2019-04-28T06:25:01.083Z,7.30
2019-04-28T06:27:32.461Z,7.40
2019-04-28T06:29:59.769Z,7.50
2019-04-28T06:32:28.225Z,7.60
2019-04-28T06:34:56.681Z,7.50
2019-04-28T06:37:25.201Z,7.60
2019-04-28T06:39:53.652Z,7.60
2019-04-28T06:42:22.115Z,7.40
2019-04-28T06:44:50.645Z,7.60
2019-04-28T06:47:19.093Z,7.70
2019-04-28T06:49:47.548Z,7.70
2019-04-28T06:52:15.989Z,7.70
2019-04-28T06:54:44.545Z,7.60
2019-04-28T06:57:12.984Z,7.70
2019-04-28T06:59:41.763Z,7.60
2019-04-28T07:02:10.234Z,7.60
2019-04-28T07:04:38.672Z,7.60
2019-04-28T07:07:07.111Z,7.80
2019-04-28T07:09:35.569Z,8.00
2019-04-28T07:12:04.081Z,8.20
2019-04-28T07:14:32.536Z,8.10
2019-04-28T07:17:00.984Z,7.80
2019-04-28T07:19:29.447Z,7.70
2019-04-28T07:21:59.540Z,7.90
2019-04-28T07:24:27.998Z,8.10
2019-04-28T07:26:56.534Z,8.10
2019-04-28T07:29:24.981Z,8.10
2019-04-28T07:31:53.511Z,8.30
2019-04-28T07:34:21.957Z,8.10
2019-04-28T07:36:53.271Z,7.90
2019-04-28T07:39:21.760Z,8.20
2019-04-28T07:41:50.244Z,8.70
2019-04-28T07:44:18.711Z,8.40
2019-04-28T07:46:47.167Z,8.60
2019-04-28T07:49:15.691Z,8.60
2019-04-28T07:52:01.170Z,8.80
2019-04-28T07:54:29.687Z,8.90
2019-04-28T07:56:59.704Z,9.20
2019-04-28T07:59:28.168Z,8.80
2019-04-28T08:01:56.620Z,8.70
2019-04-28T08:04:25.084Z,8.60
2019-04-28T08:06:53.593Z,8.60
2019-04-28T08:09:22.058Z,8.60
2019-04-28T08:11:50.513Z,9.00
2019-04-28T08:14:19.793Z,9.10
2019-04-28T08:16:48.506Z,9.00
2019-04-28T08:19:16.955Z,9.20
2019-04-28T08:21:45.418Z,9.40
2019-04-28T08:24:13.863Z,10.00
2019-04-28T08:26:42.323Z,10.40
2019-04-28T08:29:10.773Z,10.60
2019-04-28T08:31:57.276Z,10.10
2019-04-28T08:34:25.797Z,9.70
2019-04-28T08:36:54.704Z,9.20
2019-04-28T08:39:26.552Z,9.40
2019-04-28T08:41:53.344Z,9.30
2019-04-28T08:44:21.784Z,9.60
2019-04-28T08:46:50.266Z,10.20
2019-04-28T08:49:18.767Z,10.40
2019-04-28T08:51:47.235Z,10.10
2019-04-28T08:54:15.680Z,10.60
2019-04-28T08:56:44.138Z,11.10
2019-04-28T08:59:12.634Z,11.30
2019-04-28T09:01:41.074Z,11.50
2019-04-28T09:04:15.625Z,11.30
2019-04-28T09:06:39.718Z,11.10
2019-04-28T09:09:09.816Z,10.30
2019-04-28T09:11:38.303Z,9.60
2019-04-28T09:14:06.829Z,10.20
2019-04-28T09:16:35.304Z,10.70
2019-04-28T09:19:09.429Z,10.70
2019-04-28T09:21:37.952Z,10.60
2019-04-28T09:24:06.514Z,10.60
2019-04-28T09:26:37.030Z,10.70
2019-04-28T09:29:05.241Z,11.00
2019-04-28T09:31:33.715Z,10.80
2019-04-28T09:34:02.249Z,10.80
2019-04-28T09:36:30.835Z,10.90
2019-04-28T09:38:59.340Z,11.60
2019-04-28T09:41:27.804Z,11.50
2019-04-28T09:44:00.619Z,11.20
2019-04-28T09:46:36.942Z,11.50
2019-04-28T09:49:20.723Z,11.10
2019-04-28T09:51:49.298Z,11.10
2019-04-28T09:54:17.852Z,11.50
2019-04-28T09:56:56.607Z,11.90
2019-04-28T09:59:16.632Z,12.20
2019-04-28T10:01:45.104Z,11.90
2019-04-28T10:04:13.552Z,11.80
2019-04-28T10:06:42.028Z,12.20
2019-04-28T10:09:10.816Z,12.30
2019-04-28T10:11:39.290Z,12.50
2019-04-28T10:14:07.778Z,13.10
2019-04-28T10:16:36.232Z,12.20
2019-04-28T10:19:04.784Z,11.90
2019-04-28T10:21:33.284Z,11.20
2019-04-28T10:24:01.784Z,11.20
2019-04-28T10:26:30.301Z,10.80
2019-04-28T10:28:58.788Z,11.10
2019-04-28T10:31:30.152Z,11.20
2019-04-28T10:34:00.312Z,11.80
2019-04-28T10:36:32.436Z,12.10
2019-04-28T10:39:18.171Z,13.00
2019-04-28T10:41:46.733Z,13.30
2019-04-28T10:44:15.315Z,13.10
2019-04-28T10:46:43.964Z,12.30
2019-04-28T10:49:12.417Z,12.20
2019-04-28T10:51:41.017Z,12.20
2019-04-28T10:56:39.946Z,12.30
2019-04-28T10:59:09.829Z,12.30
2019-04-28T11:01:38.302Z,12.60
2019-04-28T11:04:08.543Z,13.70
2019-04-28T11:06:36.997Z,16.60
2019-04-28T11:09:14.062Z,19.50
2019-04-28T11:11:42.598Z,20.30
2019-04-28T11:14:14.151Z,17.30
2019-04-28T11:16:41.531Z,14.90
2019-04-28T11:19:10.767Z,13.20
2019-04-28T11:21:39.284Z,12.70
2019-04-28T11:24:07.749Z,11.90
2019-04-28T11:26:36.290Z,12.00
2019-04-28T11:29:04.765Z,11.30
2019-04-28T11:31:33.245Z,11.40
2019-04-28T11:34:09.297Z,11.70
2019-04-28T11:36:37.870Z,11.80
2019-04-28T11:39:08.784Z,12.70
2019-04-28T11:41:40.104Z,12.10
2019-04-28T11:44:08.649Z,12.30
2019-04-28T11:46:37.173Z,12.50
2019-04-28T11:49:05.640Z,11.90
2019-04-28T11:51:34.162Z,11.60
2019-04-28T11:54:02.612Z,11.70
2019-04-28T11:56:41.302Z,11.60
2019-04-28T11:59:01.694Z,11.60
2019-04-28T12:01:30.296Z,11.50
2019-04-28T12:04:00.410Z,10.90
2019-04-28T12:06:28.944Z,11.10
2019-04-28T12:09:06.577Z,11.00
2019-04-28T12:11:36.768Z,10.80
2019-04-28T12:14:12.841Z,11.60
2019-04-28T12:16:54.692Z,12.20
2019-04-28T12:19:24.888Z,12.70
2019-04-28T12:21:53.418Z,13.20
2019-04-28T12:24:21.898Z,14.90
2019-04-28T12:26:50.469Z,17.30
2019-04-28T12:29:18.989Z,19.80
2019-04-28T12:31:47.449Z,18.90
2019-04-28T12:34:15.917Z,17.90
2019-04-28T12:36:44.436Z,17.30
2019-04-28T12:39:13.020Z,16.60
2019-04-28T12:41:41.493Z,15.90
2019-04-28T12:44:09.949Z,15.60
2019-04-28T12:46:38.425Z,14.50
2019-04-28T12:49:17.742Z,14.10
2019-04-28T12:51:46.196Z,13.70
2019-04-28T12:54:16.289Z,13.40
2019-04-28T12:56:44.749Z,13.10
2019-04-28T12:59:17.887Z,12.50
2019-04-28T13:01:47.982Z,12.50
2019-04-28T13:04:18.115Z,12.60
2019-04-28T13:07:03.281Z,12.70
2019-04-28T13:09:31.878Z,14.00
2019-04-28T13:12:00.338Z,14.60
2019-04-28T13:14:28.871Z,13.80
2019-04-28T13:16:57.402Z,13.80
2019-04-28T13:19:32.021Z,13.60
2019-04-28T13:22:00.512Z,13.70
2019-04-28T13:24:30.539Z,13.20
2019-04-28T13:26:59.071Z,12.40
2019-04-28T13:29:32.216Z,12.10
2019-04-28T13:31:57.724Z,12.20
2019-04-28T13:34:32.182Z,12.00
2019-04-28T13:37:03.126Z,12.40
2019-04-28T13:39:51.325Z,12.10
2019-04-28T13:42:21.501Z,12.60
2019-04-28T13:44:57.258Z,12.70
2019-04-28T13:47:27.404Z,12.80
2019-04-28T13:50:00.196Z,12.70
2019-04-28T13:52:28.708Z,12.60
2019-04-28T13:55:01.553Z,12.50
2019-04-28T13:57:36.083Z,12.60
2019-04-28T14:00:08.316Z,12.20
2019-04-28T14:02:41.161Z,12.00
2019-04-28T14:05:14.291Z,12.20
2019-04-28T14:07:42.894Z,12.20
2019-04-28T14:10:11.417Z,12.40
2019-04-28T14:12:42.266Z,12.50
2019-04-28T14:15:15.494Z,13.40
2019-04-28T14:17:44.210Z,14.20
2019-04-28T14:20:12.806Z,14.40
2019-04-28T14:22:41.317Z,14.40
2019-04-28T14:25:10.053Z,14.10
2019-04-28T14:27:38.571Z,14.20
2019-04-28T14:30:10.248Z,14.30
2019-04-28T14:32:38.762Z,13.80
2019-04-28T14:35:07.493Z,14.00
2019-04-28T14:37:36.038Z,13.70
2019-04-28T14:40:06.743Z,13.70
2019-04-28T14:42:35.274Z,13.40
2019-04-28T14:45:05.701Z,13.40
2019-04-28T14:47:34.157Z,13.40
2019-04-28T14:50:03.021Z,13.30
2019-04-28T14:52:31.668Z,13.30
2019-04-28T14:55:00.138Z,13.10
2019-04-28T14:57:34.683Z,12.60
2019-04-28T14:59:58.773Z,11.90
2019-04-28T15:02:45.111Z,11.80
2019-04-28T15:05:27.656Z,11.50
2019-04-28T15:08:13.940Z,11.50
2019-04-28T15:10:44.180Z,12.00
2019-04-28T15:13:12.792Z,12.20
2019-04-28T15:15:41.240Z,12.20
2019-04-28T15:18:09.780Z,12.20
2019-04-28T15:20:38.269Z,12.00
2019-04-28T15:23:06.826Z,12.10
2019-04-28T15:25:35.409Z,12.10
2019-04-28T15:28:03.963Z,12.10
2019-04-28T15:30:32.462Z,12.00
2019-04-28T15:33:00.960Z,11.80
2019-04-28T15:35:29.498Z,11.40
2019-04-28T15:37:57.968Z,11.20
2019-04-28T15:40:26.440Z,11.10
2019-04-28T15:42:54.981Z,11.20
2019-04-28T15:45:23.505Z,11.30
2019-04-28T15:47:52.293Z,11.40
2019-04-28T15:50:20.999Z,11.40
2019-04-28T15:52:51.522Z,11.50
2019-04-28T15:55:21.446Z,11.50
2019-04-28T15:57:49.924Z,11.40
2019-04-28T16:00:18.584Z,11.80
2019-04-28T16:02:47.042Z,11.80
2019-04-28T16:05:15.504Z,11.40
2019-04-28T16:07:47.108Z,11.50
2019-04-28T16:10:15.568Z,11.40
2019-04-28T16:12:44.063Z,11.30
2019-04-28T16:15:12.614Z,11.50
2019-04-28T16:17:41.136Z,11.50
2019-04-28T16:20:10.040Z,11.40
2019-04-28T16:22:38.518Z,11.60
2019-04-28T16:25:07.603Z,11.40
2019-04-28T16:27:36.140Z,11.70
2019-04-28T16:30:06.240Z,11.80
2019-04-28T16:32:34.780Z,11.30
2019-04-28T16:35:03.604Z,11.70
2019-04-28T16:37:38.530Z,11.50
2019-04-28T16:40:05.740Z,11.60
2019-04-28T16:42:32.764Z,11.20
2019-04-28T16:45:01.386Z,11.40
2019-04-28T16:47:29.860Z,11.20
2019-04-28T16:50:06.541Z,11.40
2019-04-28T16:52:34.993Z,11.50
2019-04-28T16:55:15.887Z,11.70
2019-04-28T16:58:02.701Z,11.60
2019-04-28T17:00:48.994Z,11.50
2019-04-28T17:03:17.637Z,11.60
2019-04-28T17:05:46.128Z,11.60
2019-04-28T17:08:14.568Z,11.60
2019-04-28T17:10:43.086Z,11.50
2019-04-28T17:13:11.565Z,11.50
2019-04-28T17:15:40.172Z,11.20
2019-04-28T17:18:08.626Z,11.00
2019-04-28T17:20:38.624Z,10.90
2019-04-28T17:23:07.220Z,10.50
2019-04-28T17:25:35.761Z,10.30
2019-04-28T17:28:04.910Z,10.30
2019-04-28T17:30:33.575Z,10.30
2019-04-28T17:33:02.145Z,10.50
2019-04-28T17:35:30.754Z,10.30
2019-04-28T17:38:06.546Z,10.20
2019-04-28T17:40:30.361Z,10.40
2019-04-28T17:42:58.884Z,9.70
2019-04-28T17:45:29.079Z,9.60
2019-04-28T17:47:59.208Z,9.80
2019-04-28T17:50:32.607Z,9.70
2019-04-28T17:53:08.143Z,9.70
2019-04-28T17:55:46.555Z,9.60
2019-04-28T17:58:15.059Z,9.60
2019-04-28T18:00:57.141Z,9.40
2019-04-28T18:03:36.357Z,9.30
2019-04-28T18:06:18.131Z,8.70
2019-04-28T18:08:45.620Z,8.50
2019-04-28T18:11:14.164Z,8.70
2019-04-28T18:13:42.607Z,8.70
2019-04-28T18:16:24.726Z,8.60
2019-04-28T18:19:06.640Z,8.90
2019-04-28T18:21:35.200Z,9.00
2019-04-28T18:24:03.670Z,8.60
2019-04-28T18:26:32.148Z,8.50
2019-04-28T18:29:00.650Z,8.80
2019-04-28T18:31:32.365Z,8.70
2019-04-28T18:34:05.003Z,8.60
2019-04-28T18:36:35.097Z,8.60
2019-04-28T18:39:06.067Z,8.50
2019-04-28T18:42:04.536Z,8.60
2019-04-28T18:44:33.076Z,8.80
2019-04-28T18:47:01.586Z,8.70
2019-04-28T18:49:30.130Z,8.20
2019-04-28T18:51:58.588Z,8.50
2019-04-28T18:54:27.087Z,8.40
2019-04-28T18:56:55.543Z,7.80
2019-04-28T18:59:24.381Z,7.70
2019-04-28T19:02:00.952Z,7.60
2019-04-28T19:04:29.629Z,7.50
2019-04-28T19:07:05.036Z,7.30
2019-04-28T19:09:32.749Z,7.20
2019-04-28T19:12:02.934Z,7.10
2019-04-28T19:14:33.086Z,7.10
2019-04-28T19:17:12.257Z,7.00
2019-04-28T19:19:42.297Z,7.00
2019-04-28T19:22:10.732Z,7.00
2019-04-28T19:24:39.191Z,7.00
2019-04-28T19:27:07.671Z,7.10
2019-04-28T19:29:36.119Z,7.00
2019-04-28T19:32:04.715Z,7.10
2019-04-28T19:34:33.174Z,7.10
2019-04-28T19:37:02.009Z,7.10
2019-04-28T19:39:30.490Z,7.10
2019-04-28T19:41:59.030Z,7.00
2019-04-28T19:44:27.539Z,7.10
2019-04-28T19:46:56.009Z,7.10
2019-04-28T19:49:24.493Z,7.20
2019-04-28T19:51:53.172Z,7.10
2019-04-28T19:54:23.283Z,7.20
2019-04-28T19:57:10.176Z,7.20
2019-04-28T19:59:58.588Z,7.20
2019-04-28T20:02:28.687Z,7.20
2019-04-28T20:04:57.150Z,7.20
2019-04-28T20:07:25.673Z,7.20
2019-04-28T20:09:54.122Z,7.20
2019-04-28T20:12:22.573Z,7.20
2019-04-28T20:14:51.036Z,7.20
2019-04-28T20:17:19.537Z,7.20
2019-04-28T20:19:47.981Z,7.20
2019-04-28T20:22:16.446Z,7.30
2019-04-28T20:24:47.398Z,7.30
2019-04-28T20:27:15.130Z,7.40
2019-04-28T20:29:43.591Z,7.40
2019-04-28T20:32:14.723Z,7.30
2019-04-28T20:34:43.173Z,7.10
2019-04-28T20:37:13.285Z,7.20
2019-04-28T20:39:42.191Z,7.10
2019-04-28T20:42:28.704Z,7.00
2019-04-28T20:44:57.303Z,7.00
2019-04-28T20:47:25.910Z,6.90
2019-04-28T20:49:54.451Z,6.90
2019-04-28T20:52:22.993Z,6.90
2019-04-28T20:54:51.575Z,7.00
2019-04-28T20:57:20.057Z,7.00
2019-04-28T20:59:48.634Z,6.80
2019-04-28T21:02:17.139Z,6.80
2019-04-28T21:04:45.603Z,6.70
2019-04-28T21:07:14.123Z,6.70
2019-04-28T21:09:42.579Z,6.80
2019-04-28T21:12:11.059Z,6.70
2019-04-28T21:14:39.505Z,6.80
2019-04-28T21:17:08.011Z,6.70
2019-04-28T21:19:36.454Z,6.70
2019-04-28T21:22:04.912Z,6.50
2019-04-28T21:24:33.363Z,6.50
2019-04-28T21:27:01.828Z,6.50
2019-04-28T21:29:30.265Z,6.60
2019-04-28T21:31:58.711Z,6.60
2019-04-28T21:34:27.180Z,6.50
2019-04-28T21:36:55.640Z,6.40
2019-04-28T21:39:24.204Z,6.50
2019-04-28T21:41:52.695Z,6.70
2019-04-28T21:44:25.223Z,6.50
2019-04-28T21:46:54.553Z,6.60
2019-04-28T21:49:27.952Z,6.60
2019-04-28T21:51:56.567Z,6.60
2019-04-28T21:54:25.065Z,6.60
2019-04-28T21:56:53.611Z,6.70
2019-04-28T21:59:23.591Z,6.60
2019-04-28T22:01:52.108Z,6.60
2019-04-28T22:04:20.587Z,6.80
2019-04-28T22:06:49.060Z,6.90
2019-04-28T22:09:18.018Z,7.00
2019-04-28T22:11:46.571Z,6.90
2019-04-28T22:14:15.079Z,6.70
2019-04-28T22:16:43.593Z,6.60
2019-04-28T22:19:12.047Z,7.10
2019-04-28T22:21:40.504Z,7.40
2019-04-28T22:24:13.553Z,7.40
2019-04-28T22:26:42.612Z,7.30
2019-04-28T22:29:11.576Z,7.10
2019-04-28T22:31:40.023Z,7.00
2019-04-28T22:34:08.469Z,6.90
2019-04-28T22:36:36.962Z,6.80
2019-04-28T22:39:07.818Z,6.70
2019-04-28T22:41:36.801Z,7.00
2019-04-28T22:44:06.030Z,7.20
2019-04-28T22:46:34.482Z,7.10
2019-04-28T22:49:04.650Z,6.80
2019-04-28T22:51:33.858Z,7.10
2019-04-28T22:54:04.445Z,7.00
2019-04-28T22:56:34.792Z,6.70
2019-04-28T22:59:18.342Z,6.70
2019-04-28T23:01:54.623Z,6.70
2019-04-28T23:04:39.904Z,6.60
2019-04-28T23:07:08.362Z,6.50
2019-04-28T23:09:36.805Z,6.50
2019-04-28T23:12:05.841Z,6.40
2019-04-28T23:14:34.650Z,6.40
2019-04-28T23:17:03.236Z,6.60
2019-04-28T23:19:33.346Z,6.70
2019-04-28T23:22:06.097Z,6.70
2019-04-28T23:24:34.545Z,6.60
2019-04-28T23:27:03.077Z,6.60
2019-04-28T23:29:31.523Z,7.00
2019-04-28T23:32:00.036Z,6.90
2019-04-28T23:34:28.592Z,6.80
2019-04-28T23:36:59.049Z,6.80
2019-04-28T23:39:27.497Z,7.00
2019-04-28T23:41:57.589Z,6.70
2019-04-28T23:44:26.051Z,6.50
2019-04-28T23:46:55.953Z,6.50
2019-04-28T23:49:26.635Z,6.50
2019-04-28T23:52:13.028Z,6.60
2019-04-28T23:54:48.562Z,6.50
2019-04-28T23:57:17.029Z,6.50
2019-04-28T23:59:45.549Z,6.60
